sensor_id;sensor_type;location;lat;lon;timestamp;P1;durP1;ratioP1;P2;durP2;ratioP2
7495;SDS011;3789;47.064;15.482;2023-04-03T00:02:21;2.57;;;2.37;;
7495;SDS011;3789;47.064;15.482;2023-04-03T00:08:48;2.50;;;2.30;;
7495;SDS011;3789;47.064;15.482;2023-04-03T00:11:24;2.60;;;2.40;;
7495;SDS011;3789;47.064;15.482;2023-04-03T00:13:53;2.70;;;2.30;;
7495;SDS011;3789;47.064;15.482;2023-04-03T00:16:43;2.57;;;2.33;;
7495;SDS011;3789;47.064;15.482;2023-04-03T00:19:29;2.70;;;2.50;;
7495;SDS011;3789;47.064;15.482;2023-04-03T00:22:17;2.20;;;2.10;;
7495;SDS011;3789;47.064;15.482;2023-04-03T00:25:03;2.70;;;2.50;;
7495;SDS011;3789;47.064;15.482;2023-04-03T00:27:39;3.00;;;2.70;;
7495;SDS011;3789;47.064;15.482;2023-04-03T00:33:37;2.63;;;2.20;;
7495;SDS011;3789;47.064;15.482;2023-04-03T00:36:32;2.40;;;2.20;;
7495;SDS011;3789;47.064;15.482;2023-04-03T00:39:05;2.90;;;2.70;;
7495;SDS011;3789;47.064;15.482;2023-04-03T00:42:00;2.40;;;2.20;;
7495;SDS011;3789;47.064;15.482;2023-04-03T00:47:45;2.43;;;2.23;;
7495;SDS011;3789;47.064;15.482;2023-04-03T00:50:28;2.40;;;2.20;;
7495;SDS011;3789;47.064;15.482;2023-04-03T00:53:26;3.50;;;2.80;;
7495;SDS011;3789;47.064;15.482;2023-04-03T00:56:41;2.40;;;2.20;;
7495;SDS011;3789;47.064;15.482;2023-04-03T00:59:33;5.40;;;2.33;;
7495;SDS011;3789;47.064;15.482;2023-04-03T01:02:48;2.67;;;2.47;;
7495;SDS011;3789;47.064;15.482;2023-04-03T01:05:33;2.50;;;2.30;;
7495;SDS011;3789;47.064;15.482;2023-04-03T01:08:11;3.40;;;2.53;;
7495;SDS011;3789;47.064;15.482;2023-04-03T01:11:12;2.97;;;2.77;;
7495;SDS011;3789;47.064;15.482;2023-04-03T01:14:01;2.70;;;2.50;;
7495;SDS011;3789;47.064;15.482;2023-04-03T01:16:55;2.70;;;2.50;;
7495;SDS011;3789;47.064;15.482;2023-04-03T01:26:58;2.90;;;2.70;;
7495;SDS011;3789;47.064;15.482;2023-04-03T01:30:16;3.30;;;3.00;;
7495;SDS011;3789;47.064;15.482;2023-04-03T01:33:19;2.80;;;2.60;;
7495;SDS011;3789;47.064;15.482;2023-04-03T01:36:12;2.80;;;2.60;;
7495;SDS011;3789;47.064;15.482;2023-04-03T01:38:48;2.70;;;2.50;;
7495;SDS011;3789;47.064;15.482;2023-04-03T01:41:26;2.60;;;2.40;;
7495;SDS011;3789;47.064;15.482;2023-04-03T01:47:05;2.80;;;2.60;;
7495;SDS011;3789;47.064;15.482;2023-04-03T01:50:20;2.63;;;2.43;;
7495;SDS011;3789;47.064;15.482;2023-04-03T01:53:30;2.70;;;2.50;;
7495;SDS011;3789;47.064;15.482;2023-04-03T01:59:41;2.80;;;2.60;;
7495;SDS011;3789;47.064;15.482;2023-04-03T02:05:49;3.10;;;2.80;;
7495;SDS011;3789;47.064;15.482;2023-04-03T02:08:49;3.77;;;2.50;;
7495;SDS011;3789;47.064;15.482;2023-04-03T02:15:16;2.60;;;2.40;;
7495;SDS011;3789;47.064;15.482;2023-04-03T02:17:45;2.53;;;2.33;;
7495;SDS011;3789;47.064;15.482;2023-04-03T02:23:26;2.50;;;2.30;;
7495;SDS011;3789;47.064;15.482;2023-04-03T02:26:22;2.40;;;2.20;;
7495;SDS011;3789;47.064;15.482;2023-04-03T02:28:54;2.50;;;2.30;;
7495;SDS011;3789;47.064;15.482;2023-04-03T02:31:51;2.53;;;2.10;;
7495;SDS011;3789;47.064;15.482;2023-04-03T02:37:39;2.53;;;2.33;;
7495;SDS011;3789;47.064;15.482;2023-04-03T02:40:19;2.53;;;2.30;;
7495;SDS011;3789;47.064;15.482;2023-04-03T02:43:07;3.30;;;2.60;;
7495;SDS011;3789;47.064;15.482;2023-04-03T02:46:01;3.73;;;2.97;;
7495;SDS011;3789;47.064;15.482;2023-04-03T02:49:01;2.60;;;2.40;;
7495;SDS011;3789;47.064;15.482;2023-04-03T02:51:33;2.60;;;2.17;;
7495;SDS011;3789;47.064;15.482;2023-04-03T02:54:08;2.30;;;2.10;;
7495;SDS011;3789;47.064;15.482;2023-04-03T02:56:57;2.67;;;2.47;;
7495;SDS011;3789;47.064;15.482;2023-04-03T03:00:01;2.87;;;2.67;;
7495;SDS011;3789;47.064;15.482;2023-04-03T03:06:04;3.00;;;2.70;;
7495;SDS011;3789;47.064;15.482;2023-04-03T03:08:58;3.00;;;2.73;;
7495;SDS011;3789;47.064;15.482;2023-04-03T03:15:05;3.30;;;3.00;;
7495;SDS011;3789;47.064;15.482;2023-04-03T03:17:56;3.07;;;2.87;;
7495;SDS011;3789;47.064;15.482;2023-04-03T03:20:43;3.30;;;3.00;;
7495;SDS011;3789;47.064;15.482;2023-04-03T03:23:48;3.40;;;3.10;;
7495;SDS011;3789;47.064;15.482;2023-04-03T03:26:31;3.10;;;2.90;;
7495;SDS011;3789;47.064;15.482;2023-04-03T03:29:28;3.20;;;3.00;;
7495;SDS011;3789;47.064;15.482;2023-04-03T03:32:26;3.10;;;2.90;;
7495;SDS011;3789;47.064;15.482;2023-04-03T03:34:56;3.50;;;3.20;;
7495;SDS011;3789;47.064;15.482;2023-04-03T03:37:35;3.33;;;3.03;;
7495;SDS011;3789;47.064;15.482;2023-04-03T03:40:30;3.30;;;3.10;;
7495;SDS011;3789;47.064;15.482;2023-04-03T03:43:35;3.10;;;2.90;;
7495;SDS011;3789;47.064;15.482;2023-04-03T03:46:18;3.53;;;3.23;;
7495;SDS011;3789;47.064;15.482;2023-04-03T03:48:55;3.83;;;3.53;;
7495;SDS011;3789;47.064;15.482;2023-04-03T03:51:45;3.47;;;3.17;;
7495;SDS011;3789;47.064;15.482;2023-04-03T03:54:32;3.00;;;2.80;;
7495;SDS011;3789;47.064;15.482;2023-04-03T03:57:31;3.43;;;3.17;;
7495;SDS011;3789;47.064;15.482;2023-04-03T04:00:29;3.13;;;2.93;;
7495;SDS011;3789;47.064;15.482;2023-04-03T04:03:03;3.13;;;2.80;;
7495;SDS011;3789;47.064;15.482;2023-04-03T04:05:47;3.07;;;2.70;;
7495;SDS011;3789;47.064;15.482;2023-04-03T04:08:36;3.47;;;2.80;;
7495;SDS011;3789;47.064;15.482;2023-04-03T04:11:23;2.87;;;2.70;;
7495;SDS011;3789;47.064;15.482;2023-04-03T04:14:04;2.90;;;2.70;;
7495;SDS011;3789;47.064;15.482;2023-04-03T04:16:55;2.90;;;2.67;;
7495;SDS011;3789;47.064;15.482;2023-04-03T04:19:56;3.50;;;2.77;;
7495;SDS011;3789;47.064;15.482;2023-04-03T04:22:40;5.00;;;2.70;;
7495;SDS011;3789;47.064;15.482;2023-04-03T04:25:17;2.50;;;2.30;;
7495;SDS011;3789;47.064;15.482;2023-04-03T04:28:10;2.97;;;2.50;;
7495;SDS011;3789;47.064;15.482;2023-04-03T04:30:45;2.60;;;2.40;;
7495;SDS011;3789;47.064;15.482;2023-04-03T04:33:46;2.27;;;2.10;;
7495;SDS011;3789;47.064;15.482;2023-04-03T04:36:19;2.10;;;1.90;;
7495;SDS011;3789;47.064;15.482;2023-04-03T04:39:04;2.13;;;2.03;;
7495;SDS011;3789;47.064;15.482;2023-04-03T04:41:56;2.10;;;2.00;;
7495;SDS011;3789;47.064;15.482;2023-04-03T04:44:32;2.40;;;2.20;;
7495;SDS011;3789;47.064;15.482;2023-04-03T04:50:42;2.73;;;2.10;;
7495;SDS011;3789;47.064;15.482;2023-04-03T04:56:46;2.20;;;2.00;;
7495;SDS011;3789;47.064;15.482;2023-04-03T04:59:34;2.10;;;2.00;;
7495;SDS011;3789;47.064;15.482;2023-04-03T05:02:22;2.03;;;1.83;;
7495;SDS011;3789;47.064;15.482;2023-04-03T05:05:12;2.83;;;2.00;;
7495;SDS011;3789;47.064;15.482;2023-04-03T05:07:55;1.90;;;1.80;;
7495;SDS011;3789;47.064;15.482;2023-04-03T05:10:51;1.90;;;1.80;;
7495;SDS011;3789;47.064;15.482;2023-04-03T05:13:28;2.17;;;1.97;;
7495;SDS011;3789;47.064;15.482;2023-04-03T05:16:13;2.10;;;1.80;;
7495;SDS011;3789;47.064;15.482;2023-04-03T05:19:04;1.97;;;1.80;;
7495;SDS011;3789;47.064;15.482;2023-04-03T05:21:54;2.63;;;2.23;;
7495;SDS011;3789;47.064;15.482;2023-04-03T05:24:23;2.53;;;2.07;;
7495;SDS011;3789;47.064;15.482;2023-04-03T05:27:21;2.20;;;1.90;;
7495;SDS011;3789;47.064;15.482;2023-04-03T05:29:59;1.80;;;1.70;;
7495;SDS011;3789;47.064;15.482;2023-04-03T05:32:43;1.80;;;1.70;;
7495;SDS011;3789;47.064;15.482;2023-04-03T05:35:41;2.10;;;1.90;;
7495;SDS011;3789;47.064;15.482;2023-04-03T05:38:39;3.23;;;2.00;;
7495;SDS011;3789;47.064;15.482;2023-04-03T05:41:29;2.00;;;1.90;;
7495;SDS011;3789;47.064;15.482;2023-04-03T05:44:50;2.27;;;1.80;;
7495;SDS011;3789;47.064;15.482;2023-04-03T05:47:23;1.83;;;1.73;;
7495;SDS011;3789;47.064;15.482;2023-04-03T05:50:14;2.00;;;1.80;;
7495;SDS011;3789;47.064;15.482;2023-04-03T05:52:44;2.90;;;1.70;;
7495;SDS011;3789;47.064;15.482;2023-04-03T05:56:00;1.57;;;1.47;;
7495;SDS011;3789;47.064;15.482;2023-04-03T05:58:55;2.63;;;1.77;;
7495;SDS011;3789;47.064;15.482;2023-04-03T06:01:27;1.73;;;1.60;;
7495;SDS011;3789;47.064;15.482;2023-04-03T06:04:20;2.00;;;1.80;;
7495;SDS011;3789;47.064;15.482;2023-04-03T06:07:16;2.17;;;1.90;;
7495;SDS011;3789;47.064;15.482;2023-04-03T06:10:01;2.60;;;1.93;;
7495;SDS011;3789;47.064;15.482;2023-04-03T06:15:46;3.30;;;2.00;;
7495;SDS011;3789;47.064;15.482;2023-04-03T06:18:19;2.00;;;1.80;;
7495;SDS011;3789;47.064;15.482;2023-04-03T06:24:39;1.87;;;1.67;;
7495;SDS011;3789;47.064;15.482;2023-04-03T06:27:10;2.00;;;1.90;;
7495;SDS011;3789;47.064;15.482;2023-04-03T06:30:18;1.90;;;1.70;;
7495;SDS011;3789;47.064;15.482;2023-04-03T06:32:51;2.20;;;1.80;;
7495;SDS011;3789;47.064;15.482;2023-04-03T06:35:45;1.83;;;1.73;;
7495;SDS011;3789;47.064;15.482;2023-04-03T06:44:44;1.80;;;1.60;;
7495;SDS011;3789;47.064;15.482;2023-04-03T06:47:39;1.60;;;1.50;;
7495;SDS011;3789;47.064;15.482;2023-04-03T06:50:25;1.60;;;1.50;;
7495;SDS011;3789;47.064;15.482;2023-04-03T06:55:49;2.27;;;1.50;;
7495;SDS011;3789;47.064;15.482;2023-04-03T06:58:42;2.10;;;1.53;;
7495;SDS011;3789;47.064;15.482;2023-04-03T07:05:26;2.40;;;1.40;;
7495;SDS011;3789;47.064;15.482;2023-04-03T07:07:59;1.77;;;1.60;;
7495;SDS011;3789;47.064;15.482;2023-04-03T07:10:52;2.00;;;1.80;;
7495;SDS011;3789;47.064;15.482;2023-04-03T07:13:41;1.30;;;1.20;;
7495;SDS011;3789;47.064;15.482;2023-04-03T07:16:36;1.60;;;1.50;;
7495;SDS011;3789;47.064;15.482;2023-04-03T07:19:22;1.48;;;1.38;;
7495;SDS011;3789;47.064;15.482;2023-04-03T07:24:56;1.70;;;1.60;;
7495;SDS011;3789;47.064;15.482;2023-04-03T07:27:41;3.47;;;1.50;;
7495;SDS011;3789;47.064;15.482;2023-04-03T07:30:46;1.50;;;1.40;;
7495;SDS011;3789;47.064;15.482;2023-04-03T07:33:37;1.47;;;1.37;;
7495;SDS011;3789;47.064;15.482;2023-04-03T07:36:43;1.67;;;1.57;;
7495;SDS011;3789;47.064;15.482;2023-04-03T07:39:28;1.50;;;1.40;;
7495;SDS011;3789;47.064;15.482;2023-04-03T07:42:44;1.50;;;1.40;;
7495;SDS011;3789;47.064;15.482;2023-04-03T07:45:47;1.67;;;1.57;;
7495;SDS011;3789;47.064;15.482;2023-04-03T07:48:31;1.70;;;1.60;;
7495;SDS011;3789;47.064;15.482;2023-04-03T07:54:11;1.63;;;1.53;;
7495;SDS011;3789;47.064;15.482;2023-04-03T07:57:05;4.17;;;1.60;;
7495;SDS011;3789;47.064;15.482;2023-04-03T07:59:56;1.43;;;1.33;;
7495;SDS011;3789;47.064;15.482;2023-04-03T08:03:12;1.93;;;1.83;;
7495;SDS011;3789;47.064;15.482;2023-04-03T08:05:50;1.60;;;1.50;;
7495;SDS011;3789;47.064;15.482;2023-04-03T08:09:07;2.50;;;1.60;;
7495;SDS011;3789;47.064;15.482;2023-04-03T08:11:46;2.33;;;1.60;;
7495;SDS011;3789;47.064;15.482;2023-04-03T08:14:44;1.83;;;1.50;;
7495;SDS011;3789;47.064;15.482;2023-04-03T08:17:57;1.63;;;1.30;;
7495;SDS011;3789;47.064;15.482;2023-04-03T08:20:46;1.80;;;1.70;;
7495;SDS011;3789;47.064;15.482;2023-04-03T08:26:14;1.80;;;1.60;;
7495;SDS011;3789;47.064;15.482;2023-04-03T08:32:10;1.60;;;1.50;;
7495;SDS011;3789;47.064;15.482;2023-04-03T08:34:57;1.63;;;1.53;;
7495;SDS011;3789;47.064;15.482;2023-04-03T08:37:37;1.60;;;1.50;;
7495;SDS011;3789;47.064;15.482;2023-04-03T08:40:39;2.00;;;1.50;;
7495;SDS011;3789;47.064;15.482;2023-04-03T08:44:07;1.43;;;1.30;;
7495;SDS011;3789;47.064;15.482;2023-04-03T08:50:56;1.43;;;1.33;;
7495;SDS011;3789;47.064;15.482;2023-04-03T08:54:23;6.73;;;1.33;;
7495;SDS011;3789;47.064;15.482;2023-04-03T08:59:43;1.73;;;1.20;;
7495;SDS011;3789;47.064;15.482;2023-04-03T09:02:23;2.90;;;1.60;;
7495;SDS011;3789;47.064;15.482;2023-04-03T09:05:20;1.50;;;1.40;;
7495;SDS011;3789;47.064;15.482;2023-04-03T09:18:42;1.63;;;1.40;;
7495;SDS011;3789;47.064;15.482;2023-04-03T09:21:33;2.00;;;1.60;;
7495;SDS011;3789;47.064;15.482;2023-04-03T09:27:52;1.60;;;1.50;;
7495;SDS011;3789;47.064;15.482;2023-04-03T09:31:24;1.70;;;1.37;;
7495;SDS011;3789;47.064;15.482;2023-04-03T09:34:03;1.47;;;1.37;;
7495;SDS011;3789;47.064;15.482;2023-04-03T09:36:49;1.30;;;1.20;;
7495;SDS011;3789;47.064;15.482;2023-04-03T09:39:55;1.50;;;1.40;;
7495;SDS011;3789;47.064;15.482;2023-04-03T09:42:32;1.60;;;1.40;;
7495;SDS011;3789;47.064;15.482;2023-04-03T09:45:21;1.77;;;1.40;;
7495;SDS011;3789;47.064;15.482;2023-04-03T09:48:35;1.93;;;1.53;;
7495;SDS011;3789;47.064;15.482;2023-04-03T09:51:56;2.17;;;1.40;;
7495;SDS011;3789;47.064;15.482;2023-04-03T09:55:25;1.50;;;1.40;;
7495;SDS011;3789;47.064;15.482;2023-04-03T09:58:37;1.70;;;1.60;;
7495;SDS011;3789;47.064;15.482;2023-04-03T10:04:12;1.40;;;1.30;;
7495;SDS011;3789;47.064;15.482;2023-04-03T10:07:38;1.40;;;1.30;;
7495;SDS011;3789;47.064;15.482;2023-04-03T10:10:34;1.70;;;1.57;;
7495;SDS011;3789;47.064;15.482;2023-04-03T10:13:15;1.73;;;1.30;;
7495;SDS011;3789;47.064;15.482;2023-04-03T10:16:00;1.50;;;1.40;;
7495;SDS011;3789;47.064;15.482;2023-04-03T10:52:31;1.50;;;1.40;;
7495;SDS011;3789;47.064;15.482;2023-04-03T10:58:53;1.70;;;1.60;;
7495;SDS011;3789;47.064;15.482;2023-04-03T11:01:55;1.57;;;1.47;;
7495;SDS011;3789;47.064;15.482;2023-04-03T11:05:15;2.43;;;1.50;;
7495;SDS011;3789;47.064;15.482;2023-04-03T11:08:50;2.27;;;1.50;;
7495;SDS011;3789;47.064;15.482;2023-04-03T11:11:49;1.77;;;1.50;;
7495;SDS011;3789;47.064;15.482;2023-04-03T11:14:55;3.50;;;1.87;;
7495;SDS011;3789;47.064;15.482;2023-04-03T11:17:36;1.50;;;1.40;;
7495;SDS011;3789;47.064;15.482;2023-04-03T11:20:35;1.50;;;1.40;;
7495;SDS011;3789;47.064;15.482;2023-04-03T11:23:26;2.10;;;1.70;;
7495;SDS011;3789;47.064;15.482;2023-04-03T11:26:27;1.40;;;1.30;;
7495;SDS011;3789;47.064;15.482;2023-04-03T11:29:43;1.70;;;1.60;;
7495;SDS011;3789;47.064;15.482;2023-04-03T11:36:11;2.00;;;1.57;;
7495;SDS011;3789;47.064;15.482;2023-04-03T11:47:59;1.70;;;1.60;;
7495;SDS011;3789;47.064;15.482;2023-04-03T11:50:52;4.70;;;1.80;;
7495;SDS011;3789;47.064;15.482;2023-04-03T11:53:33;2.27;;;1.60;;
7495;SDS011;3789;47.064;15.482;2023-04-03T12:02:14;2.30;;;1.50;;
7495;SDS011;3789;47.064;15.482;2023-04-03T12:05:27;1.50;;;1.40;;
7495;SDS011;3789;47.064;15.482;2023-04-03T12:14:04;1.73;;;1.63;;
7495;SDS011;3789;47.064;15.482;2023-04-03T12:16:43;1.60;;;1.50;;
7495;SDS011;3789;47.064;15.482;2023-04-03T12:22:26;1.80;;;1.70;;
7495;SDS011;3789;47.064;15.482;2023-04-03T12:25:00;2.13;;;1.90;;
7495;SDS011;3789;47.064;15.482;2023-04-03T12:28:13;1.80;;;1.70;;
7495;SDS011;3789;47.064;15.482;2023-04-03T12:30:43;1.80;;;1.60;;
7495;SDS011;3789;47.064;15.482;2023-04-03T12:33:57;2.53;;;2.00;;
7495;SDS011;3789;47.064;15.482;2023-04-03T12:36:13;3.00;;;1.83;;
7495;SDS011;3789;47.064;15.482;2023-04-03T12:39:00;1.70;;;1.60;;
7495;SDS011;3789;47.064;15.482;2023-04-03T12:44:59;1.70;;;1.60;;
7495;SDS011;3789;47.064;15.482;2023-04-03T12:47:54;1.93;;;1.73;;
7495;SDS011;3789;47.064;15.482;2023-04-03T12:50:24;1.60;;;1.50;;
7495;SDS011;3789;47.064;15.482;2023-04-03T12:53:05;1.97;;;1.87;;
7495;SDS011;3789;47.064;15.482;2023-04-03T12:55:40;2.03;;;1.73;;
7495;SDS011;3789;47.064;15.482;2023-04-03T12:58:14;1.87;;;1.67;;
7495;SDS011;3789;47.064;15.482;2023-04-03T13:01:00;2.40;;;1.80;;
7495;SDS011;3789;47.064;15.482;2023-04-03T13:03:48;2.53;;;1.77;;
7495;SDS011;3789;47.064;15.482;2023-04-03T13:06:22;2.83;;;1.83;;
7495;SDS011;3789;47.064;15.482;2023-04-03T13:09:29;2.00;;;1.80;;
7495;SDS011;3789;47.064;15.482;2023-04-03T13:12:01;2.03;;;1.60;;
7495;SDS011;3789;47.064;15.482;2023-04-03T13:14:58;1.90;;;1.80;;
7495;SDS011;3789;47.064;15.482;2023-04-03T13:17:31;2.07;;;1.60;;
7495;SDS011;3789;47.064;15.482;2023-04-03T13:20:45;2.27;;;1.80;;
7495;SDS011;3789;47.064;15.482;2023-04-03T13:23:00;1.73;;;1.63;;
7495;SDS011;3789;47.064;15.482;2023-04-03T13:25:33;1.70;;;1.60;;
7495;SDS011;3789;47.064;15.482;2023-04-03T13:28:05;1.70;;;1.60;;
7495;SDS011;3789;47.064;15.482;2023-04-03T13:30:41;1.90;;;1.80;;
7495;SDS011;3789;47.064;15.482;2023-04-03T13:36:42;2.13;;;1.90;;
7495;SDS011;3789;47.064;15.482;2023-04-03T13:39:31;2.20;;;1.70;;
7495;SDS011;3789;47.064;15.482;2023-04-03T13:42:16;1.73;;;1.63;;
7495;SDS011;3789;47.064;15.482;2023-04-03T13:51:24;4.97;;;3.20;;
7495;SDS011;3789;47.064;15.482;2023-04-03T13:53:56;2.37;;;1.60;;
7495;SDS011;3789;47.064;15.482;2023-04-03T13:56:41;2.10;;;1.90;;
7495;SDS011;3789;47.064;15.482;2023-04-03T14:05:02;2.00;;;1.73;;
7495;SDS011;3789;47.064;15.482;2023-04-03T14:07:32;1.80;;;1.70;;
7495;SDS011;3789;47.064;15.482;2023-04-03T14:09:59;1.60;;;1.50;;
7495;SDS011;3789;47.064;15.482;2023-04-03T14:12:30;2.07;;;1.83;;
7495;SDS011;3789;47.064;15.482;2023-04-03T14:15:01;2.23;;;1.80;;
7495;SDS011;3789;47.064;15.482;2023-04-03T14:17:32;2.40;;;1.97;;
7495;SDS011;3789;47.064;15.482;2023-04-03T14:20:01;1.87;;;1.67;;
7495;SDS011;3789;47.064;15.482;2023-04-03T14:22:31;1.90;;;1.80;;
7495;SDS011;3789;47.064;15.482;2023-04-03T14:25:03;2.43;;;1.90;;
7495;SDS011;3789;47.064;15.482;2023-04-03T14:27:40;1.83;;;1.73;;
7495;SDS011;3789;47.064;15.482;2023-04-03T14:30:29;1.90;;;1.80;;
7495;SDS011;3789;47.064;15.482;2023-04-03T14:33:09;2.87;;;1.90;;
7495;SDS011;3789;47.064;15.482;2023-04-03T14:35:44;2.70;;;2.10;;
7495;SDS011;3789;47.064;15.482;2023-04-03T14:38:31;2.23;;;2.00;;
7495;SDS011;3789;47.064;15.482;2023-04-03T14:40:59;1.97;;;1.73;;
7495;SDS011;3789;47.064;15.482;2023-04-03T14:43:43;2.27;;;2.00;;
7495;SDS011;3789;47.064;15.482;2023-04-03T14:46:16;2.47;;;2.23;;
7495;SDS011;3789;47.064;15.482;2023-04-03T14:49:24;2.43;;;2.10;;
7495;SDS011;3789;47.064;15.482;2023-04-03T14:51:56;2.63;;;1.90;;
7495;SDS011;3789;47.064;15.482;2023-04-03T14:54:26;2.20;;;2.00;;
7495;SDS011;3789;47.064;15.482;2023-04-03T14:56:57;3.23;;;2.30;;
7495;SDS011;3789;47.064;15.482;2023-04-03T14:59:27;2.20;;;2.07;;
7495;SDS011;3789;47.064;15.482;2023-04-03T15:01:59;2.70;;;2.30;;
7495;SDS011;3789;47.064;15.482;2023-04-03T15:04:29;4.33;;;1.90;;
7495;SDS011;3789;47.064;15.482;2023-04-03T15:07:00;2.47;;;2.10;;
7495;SDS011;3789;47.064;15.482;2023-04-03T15:09:30;2.40;;;2.20;;
7495;SDS011;3789;47.064;15.482;2023-04-03T15:12:00;2.60;;;2.40;;
7495;SDS011;3789;47.064;15.482;2023-04-03T15:14:30;2.40;;;2.20;;
7495;SDS011;3789;47.064;15.482;2023-04-03T15:17:21;2.83;;;2.27;;
7495;SDS011;3789;47.064;15.482;2023-04-03T15:19:50;2.43;;;2.20;;
7495;SDS011;3789;47.064;15.482;2023-04-03T15:22:19;2.50;;;2.30;;
7495;SDS011;3789;47.064;15.482;2023-04-03T15:24:49;3.50;;;2.43;;
7495;SDS011;3789;47.064;15.482;2023-04-03T15:27:27;2.30;;;2.10;;
7495;SDS011;3789;47.064;15.482;2023-04-03T15:29:55;2.30;;;2.10;;
7495;SDS011;3789;47.064;15.482;2023-04-03T15:32:24;2.60;;;2.33;;
7495;SDS011;3789;47.064;15.482;2023-04-03T15:34:53;2.50;;;2.30;;
7495;SDS011;3789;47.064;15.482;2023-04-03T15:37:23;2.97;;;2.67;;
7495;SDS011;3789;47.064;15.482;2023-04-03T15:39:52;2.50;;;2.30;;
7495;SDS011;3789;47.064;15.482;2023-04-03T15:42:21;2.50;;;2.30;;
7495;SDS011;3789;47.064;15.482;2023-04-03T15:44:50;3.03;;;2.27;;
7495;SDS011;3789;47.064;15.482;2023-04-03T15:47:29;2.60;;;2.40;;
7495;SDS011;3789;47.064;15.482;2023-04-03T15:50:00;2.70;;;2.50;;
7495;SDS011;3789;47.064;15.482;2023-04-03T15:52:28;2.60;;;2.40;;
7495;SDS011;3789;47.064;15.482;2023-04-03T15:54:57;2.60;;;2.40;;
7495;SDS011;3789;47.064;15.482;2023-04-03T15:57:34;2.60;;;2.40;;
7495;SDS011;3789;47.064;15.482;2023-04-03T16:00:04;2.70;;;2.47;;
7495;SDS011;3789;47.064;15.482;2023-04-03T16:02:36;3.03;;;2.73;;
7495;SDS011;3789;47.064;15.482;2023-04-03T16:05:06;2.50;;;2.30;;
7495;SDS011;3789;47.064;15.482;2023-04-03T16:07:39;3.53;;;2.37;;
7495;SDS011;3789;47.064;15.482;2023-04-03T16:10:08;2.83;;;2.50;;
7495;SDS011;3789;47.064;15.482;2023-04-03T16:12:48;3.23;;;2.40;;
7495;SDS011;3789;47.064;15.482;2023-04-03T16:15:25;4.47;;;2.50;;
7495;SDS011;3789;47.064;15.482;2023-04-03T16:17:54;2.63;;;2.40;;
7495;SDS011;3789;47.064;15.482;2023-04-03T16:20:23;2.60;;;2.40;;
7495;SDS011;3789;47.064;15.482;2023-04-03T16:22:53;2.43;;;2.23;;
7495;SDS011;3789;47.064;15.482;2023-04-03T16:25:23;2.57;;;2.37;;
7495;SDS011;3789;47.064;15.482;2023-04-03T16:27:54;2.53;;;2.23;;
7495;SDS011;3789;47.064;15.482;2023-04-03T16:30:28;2.77;;;2.43;;
7495;SDS011;3789;47.064;15.482;2023-04-03T16:32:56;2.47;;;2.27;;
7495;SDS011;3789;47.064;15.482;2023-04-03T16:35:26;4.07;;;2.60;;
7495;SDS011;3789;47.064;15.482;2023-04-03T16:37:57;3.80;;;2.87;;
7495;SDS011;3789;47.064;15.482;2023-04-03T16:40:25;4.17;;;2.60;;
7495;SDS011;3789;47.064;15.482;2023-04-03T16:42:53;3.00;;;2.70;;
7495;SDS011;3789;47.064;15.482;2023-04-03T16:45:21;3.10;;;2.30;;
7495;SDS011;3789;47.064;15.482;2023-04-03T16:47:53;2.63;;;2.30;;
7495;SDS011;3789;47.064;15.482;2023-04-03T16:50:22;3.83;;;2.63;;
7495;SDS011;3789;47.064;15.482;2023-04-03T16:52:52;3.83;;;2.63;;
7495;SDS011;3789;47.064;15.482;2023-04-03T16:55:21;2.70;;;2.50;;
7495;SDS011;3789;47.064;15.482;2023-04-03T16:57:59;3.17;;;2.60;;
7495;SDS011;3789;47.064;15.482;2023-04-03T17:00:30;2.87;;;2.57;;
7495;SDS011;3789;47.064;15.482;2023-04-03T17:03:00;2.93;;;2.60;;
7495;SDS011;3789;47.064;15.482;2023-04-03T17:05:37;2.90;;;2.60;;
7495;SDS011;3789;47.064;15.482;2023-04-03T17:08:08;3.07;;;2.80;;
7495;SDS011;3789;47.064;15.482;2023-04-03T17:10:37;4.10;;;3.00;;
7495;SDS011;3789;47.064;15.482;2023-04-03T17:13:06;3.70;;;3.00;;
7495;SDS011;3789;47.064;15.482;2023-04-03T17:15:35;5.70;;;3.27;;
7495;SDS011;3789;47.064;15.482;2023-04-03T17:18:09;3.60;;;2.90;;
7495;SDS011;3789;47.064;15.482;2023-04-03T17:20:37;3.57;;;2.60;;
7495;SDS011;3789;47.064;15.482;2023-04-03T17:23:06;3.20;;;2.90;;
7495;SDS011;3789;47.064;15.482;2023-04-03T17:25:35;4.10;;;2.90;;
7495;SDS011;3789;47.064;15.482;2023-04-03T17:28:03;4.33;;;2.80;;
7495;SDS011;3789;47.064;15.482;2023-04-03T17:30:33;3.17;;;2.87;;
7495;SDS011;3789;47.064;15.482;2023-04-03T17:33:02;4.10;;;3.43;;
7495;SDS011;3789;47.064;15.482;2023-04-03T17:35:29;3.20;;;2.90;;
7495;SDS011;3789;47.064;15.482;2023-04-03T17:38:00;3.30;;;3.00;;
7495;SDS011;3789;47.064;15.482;2023-04-03T17:40:31;3.60;;;3.13;;
7495;SDS011;3789;47.064;15.482;2023-04-03T17:42:58;3.53;;;2.90;;
7495;SDS011;3789;47.064;15.482;2023-04-03T17:45:28;3.37;;;3.17;;
7495;SDS011;3789;47.064;15.482;2023-04-03T17:47:56;3.83;;;3.17;;
7495;SDS011;3789;47.064;15.482;2023-04-03T17:50:25;3.20;;;2.90;;
7495;SDS011;3789;47.064;15.482;2023-04-03T17:52:56;3.30;;;3.00;;
7495;SDS011;3789;47.064;15.482;2023-04-03T17:55:24;3.87;;;2.77;;
7495;SDS011;3789;47.064;15.482;2023-04-03T17:57:53;4.20;;;3.40;;
7495;SDS011;3789;47.064;15.482;2023-04-03T18:00:23;2.90;;;2.70;;
7495;SDS011;3789;47.064;15.482;2023-04-03T18:02:53;3.20;;;2.80;;
7495;SDS011;3789;47.064;15.482;2023-04-03T18:05:20;3.77;;;3.00;;
7495;SDS011;3789;47.064;15.482;2023-04-03T18:07:49;3.43;;;3.10;;
7495;SDS011;3789;47.064;15.482;2023-04-03T18:10:19;3.27;;;2.80;;
7495;SDS011;3789;47.064;15.482;2023-04-03T18:12:56;3.33;;;2.90;;
7495;SDS011;3789;47.064;15.482;2023-04-03T18:15:32;3.40;;;3.10;;
7495;SDS011;3789;47.064;15.482;2023-04-03T18:18:03;3.47;;;3.17;;
7495;SDS011;3789;47.064;15.482;2023-04-03T18:20:33;3.27;;;2.53;;
7495;SDS011;3789;47.064;15.482;2023-04-03T18:23:04;3.50;;;3.03;;
7495;SDS011;3789;47.064;15.482;2023-04-03T18:25:35;2.97;;;2.73;;
7495;SDS011;3789;47.064;15.482;2023-04-03T18:28:05;3.00;;;2.70;;
7495;SDS011;3789;47.064;15.482;2023-04-03T18:30:43;3.40;;;3.10;;
7495;SDS011;3789;47.064;15.482;2023-04-03T18:33:15;2.77;;;2.57;;
7495;SDS011;3789;47.064;15.482;2023-04-03T18:35:45;4.73;;;3.10;;
7495;SDS011;3789;47.064;15.482;2023-04-03T18:38:18;2.77;;;2.57;;
7495;SDS011;3789;47.064;15.482;2023-04-03T18:40:59;3.83;;;3.37;;
7495;SDS011;3789;47.064;15.482;2023-04-03T18:43:28;2.87;;;2.53;;
7495;SDS011;3789;47.064;15.482;2023-04-03T18:46:11;2.70;;;2.50;;
7495;SDS011;3789;47.064;15.482;2023-04-03T18:48:40;4.27;;;2.90;;
7495;SDS011;3789;47.064;15.482;2023-04-03T18:51:11;2.70;;;2.50;;
7495;SDS011;3789;47.064;15.482;2023-04-03T18:53:42;4.77;;;2.87;;
7495;SDS011;3789;47.064;15.482;2023-04-03T18:56:18;2.80;;;2.50;;
7495;SDS011;3789;47.064;15.482;2023-04-03T18:58:48;3.07;;;2.77;;
7495;SDS011;3789;47.064;15.482;2023-04-03T19:01:18;4.60;;;2.67;;
7495;SDS011;3789;47.064;15.482;2023-04-03T19:03:55;3.97;;;3.07;;
7495;SDS011;3789;47.064;15.482;2023-04-03T19:06:27;3.77;;;2.83;;
7495;SDS011;3789;47.064;15.482;2023-04-03T19:08:56;2.90;;;2.60;;
7495;SDS011;3789;47.064;15.482;2023-04-03T19:11:25;3.07;;;2.60;;
7495;SDS011;3789;47.064;15.482;2023-04-03T19:13:57;3.70;;;3.07;;
7495;SDS011;3789;47.064;15.482;2023-04-03T19:16:44;3.17;;;2.70;;
7495;SDS011;3789;47.064;15.482;2023-04-03T19:19:12;4.80;;;2.67;;
7495;SDS011;3789;47.064;15.482;2023-04-03T19:21:40;2.70;;;2.50;;
7495;SDS011;3789;47.064;15.482;2023-04-03T19:24:09;3.13;;;2.83;;
7495;SDS011;3789;47.064;15.482;2023-04-03T19:26:40;2.80;;;2.60;;
7495;SDS011;3789;47.064;15.482;2023-04-03T19:29:10;3.10;;;2.67;;
7495;SDS011;3789;47.064;15.482;2023-04-03T19:31:39;3.90;;;3.00;;
7495;SDS011;3789;47.064;15.482;2023-04-03T19:34:10;4.07;;;2.67;;
7495;SDS011;3789;47.064;15.482;2023-04-03T19:36:40;3.23;;;2.93;;
7495;SDS011;3789;47.064;15.482;2023-04-03T19:39:18;4.03;;;3.13;;
7495;SDS011;3789;47.064;15.482;2023-04-03T19:41:46;4.20;;;2.87;;
7495;SDS011;3789;47.064;15.482;2023-04-03T19:44:23;4.23;;;2.93;;
7495;SDS011;3789;47.064;15.482;2023-04-03T19:46:51;3.37;;;2.60;;